Charleston, SC

5:46 PM EST en Noviembre 28, 2014 (GMT -0500)
Charleston Executive | Change Station
CLOSE
Current Station
Aeropuerto
Location: Charleston,
Altura: 16 ft
Estaciones meteorológicas cercanas

Alt 16 ft 32.70 °N, 80.01 °W | Updated 11 minutes ago

Despejado
Despejado
45 ° F
Sensación térmica 45 ° F
N
0
Viento Variable Viento desde Norte

Hoy
Alta -- | Baja -- ° F
--% Posibilidad de precipitaciones
Ayer
Alta -- | Baja -- ° F
Precip. -- pul
7:01 AM 5:14 PM
Creciente, 44% visible
Presión 30.33 pul
Visibilidad 10.0 Millas
Nubes Despejado
Punto de rocío 34 ° F
Humedad 66%
Precipitaciones 0.00 pul
Espesor de la nieve No disponible.
UV 0 de una escala de 12
Polen 1.80 de una escala de 12
Calidad del aire No disponible.
Flu Activity No disponible.
METAR KJZI 282235Z AUTO 00000KT 10SM CLR 07/01 A3033 RMK A02 P000

More Conditions Fewer Conditions

Presión 30.33 pul
Visibilidad 10.0 Millas
Nubes Despejado
Punto de rocío 34 ° F
Humedad 66%
Precipitaciones 0.00 pul
Espesor de la nieve No disponible.
UV 0 de una escala de 12
Polen 1.80 de una escala de 12
Calidad del aire No disponible.
Flu Activity No disponible.
METAR KJZI 282235Z AUTO 00000KT 10SM CLR 07/01 A3033 RMK A02 P000

More Conditions Fewer Conditions

10-Day Weather Forecast

Almanac

Astronomía

Nov. 28, 2014 Salida Puesta
Hora real
Crepúsculo civil
Crepúsculo náutico
Crepúsculo astronómico
Luna
Horas de luz
Horas de luz
Tomorrow will be .
, % of the Moon is Illuminated

Extremos de hoy

Máximos del estado Bajos del estado

Community

WunderPhotos

Upload Photos

1,774,323 ¡fotos cargadas!

WunderBlogs® & News

Nearby

Calidad del aire

  Calidad del aire Índice AQ Contaminante
Not available.

Grosos de nieve

Estación Profundido Altura

Actividad de terremotos

Ciudad Distance Mag. Tiempo y dato
Magnitud mínima muestra es 2,5.

Temperaturas de aguas costeras

Lugar Temperatura

Estaciones meteorológicas cercanas